Time;durP1;ratioP1;P1;durP2;ratioP2;P2;SDS_P1;SDS_P2;PMS_P1;PMS_P2;Temp;Humidity;BMP_temperature;BMP_pressure;BME280_temperature;BME280_humidity;BME280_pressure;Samples;Min_cycle;Max_cycle;Signal;HPM_P1;HPM_P2
2021/01/25 00:00:13;;;;;;;0.42;0.42;;;;;;;4.81;100.00;99595.21;1732722;81;21126;-54
2021/01/25 00:02:41;;;;;;;0.10;0.10;;;;;;;4.61;100.00;99595.91;1732672;82;21137;-54
2021/01/25 00:05:10;;;;;;;0.10;0.10;;;;;;;4.44;100.00;99590.64;1732585;81;21110;-54
2021/01/25 00:07:39;;;;;;;1.07;0.47;;;;;;;4.32;100.00;99585.41;1732701;82;21114;-54
2021/01/25 00:10:09;;;;;;;0.40;0.40;;;;;;;4.22;100.00;99582.63;1702391;82;21436;-55
2021/01/25 00:12:37;;;;;;;1.57;1.47;;;;;;;4.11;100.00;99569.58;1732642;82;21158;-54
2021/01/25 00:15:06;;;;;;;0.10;0.10;;;;;;;4.04;100.00;99573.03;1732687;81;21133;-54
2021/01/25 00:17:35;;;;;;;0.30;0.30;;;;;;;3.99;100.00;99562.17;1732631;82;21157;-55
2021/01/25 00:20:03;;;;;;;0.10;0.10;;;;;;;3.95;100.00;99562.41;1732647;81;21134;-55
2021/01/25 00:22:32;;;;;;;0.28;0.28;;;;;;;3.95;100.00;99555.10;1732819;82;21629;-55
2021/01/25 00:25:00;;;;;;;0.57;0.57;;;;;;;3.95;100.00;99554.30;1732655;81;21416;-55
2021/01/25 00:27:27;;;;;;;0.33;0.33;;;;;;;3.96;100.00;99558.64;1732711;82;21579;-55
2021/01/25 00:29:55;;;;;;;0.40;0.40;;;;;;;3.96;100.00;99563.51;1732581;81;21138;-54
2021/01/25 00:32:22;;;;;;;1.35;1.12;;;;;;;3.98;100.00;99559.17;1732759;82;21122;-55
2021/01/25 00:34:50;;;;;;;0.30;0.25;;;;;;;3.98;100.00;99565.42;1732569;81;21493;-54
2021/01/25 00:37:17;;;;;;;0.70;0.70;;;;;;;3.99;100.00;99566.23;1732844;82;21154;-54
2021/01/25 00:39:44;;;;;;;1.67;0.75;;;;;;;4.00;100.00;99565.15;1732550;81;21146;-53
2021/01/25 00:42:11;;;;;;;0.80;0.68;;;;;;;3.99;100.00;99564.88;1732623;82;21146;-53
2021/01/25 00:44:39;;;;;;;0.23;0.23;;;;;;;3.96;100.00;99554.59;1732602;81;21125;-53
2021/01/25 00:47:06;;;;;;;0.45;0.45;;;;;;;3.93;100.00;99563.19;1732554;82;21139;-53
2021/01/25 00:49:34;;;;;;;0.68;0.68;;;;;;;3.90;100.00;99567.77;1732662;81;21587;-54
2021/01/25 00:52:01;;;;;;;1.75;1.20;;;;;;;3.88;100.00;99574.25;1732699;82;21141;-53
2021/01/25 00:54:29;;;;;;;0.30;0.30;;;;;;;3.86;100.00;99566.94;1701553;82;21134;-53
2021/01/25 00:56:57;;;;;;;0.35;0.35;;;;;;;3.84;100.00;99564.21;1732725;82;21464;-53
2021/01/25 00:59:24;;;;;;;2.30;1.70;;;;;;;3.85;100.00;99558.53;1732521;81;21154;-53
2021/01/25 01:01:51;;;;;;;0.53;0.23;;;;;;;3.88;100.00;99568.85;1732659;82;21568;-54
2021/01/25 01:04:19;;;;;;;1.00;0.50;;;;;;;3.92;100.00;99560.22;1732639;81;21142;-52
2021/01/25 01:06:46;;;;;;;0.42;0.42;;;;;;;3.93;100.00;99552.37;1732633;82;21134;-51
2021/01/25 01:09:14;;;;;;;2.10;1.05;;;;;;;3.92;100.00;99544.00;1732679;81;21126;-51
2021/01/25 01:11:42;;;;;;;1.10;1.10;;;;;;;3.92;100.00;99544.00;1732703;82;21647;-52
2021/01/25 01:14:09;;;;;;;1.35;1.05;;;;;;;3.91;100.00;99538.30;1732567;81;21122;-52
2021/01/25 01:16:36;;;;;;;1.22;0.70;;;;;;;3.90;100.00;99548.84;1732567;82;21137;-52
2021/01/25 01:19:04;;;;;;;0.15;0.15;;;;;;;3.90;100.00;99555.06;1732407;81;21217;-53
2021/01/25 01:21:31;;;;;;;0.05;0.05;;;;;;;3.93;100.00;99553.22;1732655;82;21162;-52
2021/01/25 01:23:58;;;;;;;0.40;0.40;;;;;;;3.94;100.00;99550.78;1732664;81;21129;-51
2021/01/25 01:26:26;;;;;;;0.10;0.10;;;;;;;3.97;100.00;99547.55;1732691;82;21110;-51
2021/01/25 01:28:53;;;;;;;0.40;0.40;;;;;;;3.99;100.00;99548.66;1732685;81;21299;-51
2021/01/25 01:31:21;;;;;;;0.05;0.05;;;;;;;4.01;100.00;99547.88;1732574;82;21154;-52
2021/01/25 01:33:48;;;;;;;5.72;1.20;;;;;;;4.05;100.00;99547.61;1740410;80;21166;-51
2021/01/25 01:36:15;;;;;;;0.05;0.05;;;;;;;4.07;100.00;99554.94;1756571;81;21154;-51
2021/01/25 01:38:43;;;;;;;0.42;0.42;;;;;;;4.07;100.00;99552.23;1756582;80;21183;-52
2021/01/25 01:41:10;;;;;;;0.40;0.40;;;;;;;3.96;100.00;99546.48;1756730;81;21144;-52
2021/01/25 01:43:37;;;;;;;0.78;0.78;;;;;;;3.83;100.00;99558.00;1756573;80;21226;-50
2021/01/25 01:46:05;;;;;;;2.10;0.30;;;;;;;3.75;100.00;99558.44;1756539;81;22015;-51
2021/01/25 01:48:32;;;;;;;0.55;0.40;;;;;;;3.71;100.00;99557.34;1728822;80;21150;-51
2021/01/25 01:50:59;;;;;;;0.40;0.40;;;;;;;3.69;100.00;99564.08;1756414;81;21125;-51
2021/01/25 01:53:27;;;;;;;0.25;0.25;;;;;;;3.67;100.00;99562.97;1756539;81;21139;-51
2021/01/25 01:55:54;;;;;;;0.20;0.20;;;;;;;3.67;100.00;99561.62;1728860;81;21187;-50
2021/01/25 01:58:23;;;;;;;2.00;0.65;;;;;;;3.69;100.00;99566.23;1728904;81;21138;-52
2021/01/25 02:00:50;;;;;;;0.60;0.50;;;;;;;3.74;100.00;99577.09;1729018;81;21123;-50
2021/01/25 02:03:19;;;;;;;1.27;0.40;;;;;;;3.79;100.00;99574.44;1756267;81;21503;-50
2021/01/25 02:05:46;;;;;;;0.10;0.10;;;;;;;3.85;100.00;99585.55;1756016;80;21150;-51
2021/01/25 02:08:14;;;;;;;0.28;0.28;;;;;;;3.90;100.00;99579.39;1756038;81;21591;-51
2021/01/25 02:10:42;;;;;;;0.23;0.23;;;;;;;4.02;100.00;99580.58;1728712;81;21225;-51
2021/01/25 02:13:09;;;;;;;0.10;0.10;;;;;;;4.23;100.00;99578.88;1756243;81;21147;-51
2021/01/25 02:15:36;;;;;;;0.00;0.00;;;;;;;4.46;100.00;99575.78;1756168;81;21131;-51
2021/01/25 02:18:04;;;;;;;0.15;0.15;;;;;;;4.64;100.00;99573.73;1728854;81;21190;-54
2021/01/25 02:20:35;;;;;;;0.00;0.00;;;;;;;4.80;100.00;99575.97;1756462;81;21127;-52
2021/01/25 02:23:29;;;;;;;0.20;0.20;;;;;;;4.96;100.00;99569.56;1728606;81;21134;-54
2021/01/25 02:26:17;;;;;;;0.00;0.00;;;;;;;5.08;100.00;99583.70;1756466;81;21131;-54
2021/01/25 02:28:45;;;;;;;0.00;0.00;;;;;;;5.23;100.00;99590.27;1756187;81;37453;-53
2021/01/25 02:31:13;;;;;;;0.20;0.20;;;;;;;5.33;100.00;99593.01;1756403;81;21151;-53
2021/01/25 02:33:52;;;;;;;0.00;0.00;;;;;;;5.40;100.00;99588.16;1725183;81;21276;-54
2021/01/25 02:36:20;;;;;;;0.57;0.45;;;;;;;5.46;100.00;99583.56;1732663;82;21149;-53
2021/01/25 02:38:49;;;;;;;0.10;0.10;;;;;;;5.47;100.00;99579.25;1732543;82;21453;-54
2021/01/25 02:41:17;;;;;;;0.50;0.47;;;;;;;5.51;100.00;99584.38;1732685;82;21110;-53
2021/01/25 02:43:47;;;;;;;0.10;0.10;;;;;;;5.54;100.00;99579.80;1732370;82;21145;-53
2021/01/25 02:46:15;;;;;;;0.10;0.10;;;;;;;5.56;100.00;99587.14;1702167;82;21561;-53
2021/01/25 02:48:42;;;;;;;1.45;0.37;;;;;;;5.58;100.00;99587.66;1732642;81;21115;-53
2021/01/25 02:51:12;;;;;;;0.08;0.08;;;;;;;5.62;100.00;99593.92;1701616;82;21130;-54
2021/01/25 02:53:39;;;;;;;1.10;0.42;;;;;;;5.63;100.00;99594.19;1702136;82;21580;-54
2021/01/25 02:56:07;;;;;;;0.20;0.20;;;;;;;5.65;100.00;99601.52;1732706;82;21531;-54
2021/01/25 02:58:34;;;;;;;0.35;0.23;;;;;;;5.68;100.00;99595.55;1701814;82;21604;-53
2021/01/25 03:01:02;;;;;;;0.10;0.10;;;;;;;5.71;100.00;99593.65;1701781;82;21113;-54
2021/01/25 03:03:32;;;;;;;0.47;0.40;;;;;;;5.72;100.00;99582.55;1732626;82;21564;-53
2021/01/25 03:05:59;;;;;;;0.00;0.00;;;;;;;5.71;100.00;99586.36;1750261;80;21589;-54
2021/01/25 03:08:27;;;;;;;1.55;1.45;;;;;;;5.72;100.00;99581.19;1781811;80;21600;-53
2021/01/25 03:10:55;;;;;;;0.00;0.00;;;;;;;5.75;100.00;99586.62;1781857;80;21000;-53
2021/01/25 03:13:26;;;;;;;0.00;0.00;;;;;;;5.76;100.00;99582.30;1781789;80;21515;-53
2021/01/25 03:15:56;;;;;;;0.42;0.20;;;;;;;5.77;100.00;99583.11;1781705;80;21123;-54
2021/01/25 03:18:25;;;;;;;0.68;0.68;;;;;;;5.77;100.00;99582.55;1781697;80;21648;-53
2021/01/25 03:20:53;;;;;;;0.30;0.30;;;;;;;5.77;100.00;99571.71;1781581;79;21199;-53
2021/01/25 03:23:21;;;;;;;0.00;0.00;;;;;;;5.78;100.00;99578.75;1781772;80;21139;-53
2021/01/25 03:25:48;;;;;;;0.05;0.05;;;;;;;5.79;100.00;99576.88;1717589;82;21150;-54
2021/01/25 03:28:15;;;;;;;0.00;0.00;;;;;;;5.78;100.00;99572.52;1726995;83;21410;-53
2021/01/25 03:30:43;;;;;;;0.62;0.62;;;;;;;5.78;100.00;99573.87;1787458;80;21146;-54
2021/01/25 03:33:10;;;;;;;0.40;0.40;;;;;;;5.78;100.00;99577.94;1787618;80;21142;-52
2021/01/25 03:35:37;;;;;;;0.53;0.42;;;;;;;5.78;100.00;99571.16;1790030;80;21481;-53
2021/01/25 03:38:05;;;;;;;0.37;0.15;;;;;;;5.77;100.00;99575.78;1731657;82;21118;-52
2021/01/25 03:40:33;;;;;;;0.62;0.62;;;;;;;5.76;100.00;99583.66;1790809;80;21134;-52
2021/01/25 03:43:01;;;;;;;0.10;0.10;;;;;;;5.76;100.00;99574.16;1790901;80;21537;-53
2021/01/25 03:45:29;;;;;;;1.75;0.90;;;;;;;5.75;100.00;99571.71;1790797;80;21161;-53
2021/01/25 03:47:56;;;;;;;0.53;0.15;;;;;;;5.74;100.00;99574.97;1790762;80;21469;-51
2021/01/25 03:50:24;;;;;;;2.83;0.30;;;;;;;5.71;100.00;99568.73;1790727;78;21154;-51
2021/01/25 03:52:51;;;;;;;1.07;0.65;;;;;;;5.70;100.00;99570.34;1790847;80;21130;-52
2021/01/25 03:55:19;;;;;;;0.15;0.10;;;;;;;5.66;100.00;99570.60;1790743;78;21114;-51
2021/01/25 03:57:46;;;;;;;1.57;0.72;;;;;;;5.64;100.00;99574.11;1731688;82;21170;-50
2021/01/25 04:00:15;;;;;;;0.17;0.17;;;;;;;5.59;100.00;99577.66;1790679;80;21210;-52
2021/01/25 04:02:42;;;;;;;0.88;0.88;;;;;;;5.59;100.00;99582.53;1790752;80;21138;-51
2021/01/25 04:05:10;;;;;;;0.62;0.62;;;;;;;5.60;100.00;99571.14;1790842;80;21401;-52
2021/01/25 04:07:38;;;;;;;1.50;0.70;;;;;;;5.58;100.00;99572.75;1790752;80;21115;-53
2021/01/25 04:10:06;;;;;;;0.47;0.23;;;;;;;5.58;100.00;99567.33;1764583;80;21499;-51
2021/01/25 04:12:36;;;;;;;1.25;0.55;;;;;;;5.58;100.00;99568.69;1790809;80;21123;-53
2021/01/25 04:15:06;;;;;;;0.20;0.20;;;;;;;5.58;100.00;99565.97;1790708;80;21568;-50
2021/01/25 04:17:34;;;;;;;0.98;0.88;;;;;;;5.57;100.00;99564.36;1790783;80;21155;-50
2021/01/25 04:20:03;;;;;;;0.57;0.57;;;;;;;5.58;100.00;99564.62;1731702;81;21150;-50
2021/01/25 04:22:32;;;;;;;0.33;0.33;;;;;;;5.58;100.00;99565.97;1790834;80;21162;-51
2021/01/25 04:25:00;;;;;;;0.45;0.25;;;;;;;5.58;100.00;99571.39;1790783;78;21165;-50
2021/01/25 04:27:27;;;;;;;2.25;0.33;;;;;;;5.58;100.00;99565.97;1790967;80;21131;-52
2021/01/25 04:29:55;;;;;;;0.72;0.45;;;;;;;5.57;100.00;99564.36;1790678;78;21517;-51
2021/01/25 04:32:23;;;;;;;1.47;0.62;;;;;;;5.56;100.00;99558.68;1790784;80;21154;-51
2021/01/25 04:34:54;;;;;;;0.55;0.55;;;;;;;5.57;100.00;99559.48;1790611;80;21193;-51
2021/01/25 04:37:22;;;;;;;1.00;1.00;;;;;;;5.56;100.00;99565.97;1731565;82;21189;-51
2021/01/25 04:39:51;;;;;;;0.45;0.45;;;;;;;5.54;100.00;99564.91;1731639;82;21179;-50
2021/01/25 04:42:19;;;;;;;0.35;0.35;;;;;;;5.54;100.00;99564.09;1731595;82;21127;-50
2021/01/25 04:44:46;;;;;;;0.00;0.00;;;;;;;5.54;100.00;99564.91;1764328;80;21557;-50
2021/01/25 04:47:13;;;;;;;0.47;0.47;;;;;;;5.53;100.00;99561.09;1731666;82;21150;-50
2021/01/25 04:49:42;;;;;;;0.85;0.85;;;;;;;5.51;100.00;99566.77;1740053;80;21175;-51
2021/01/25 04:52:10;;;;;;;0.57;0.57;;;;;;;5.51;100.00;99569.48;1790909;80;21537;-50
2021/01/25 04:54:38;;;;;;;0.68;0.60;;;;;;;5.50;100.00;99574.64;1764467;80;21307;-50
2021/01/25 04:57:05;;;;;;;0.30;0.30;;;;;;;5.47;100.00;99571.11;1790872;80;21143;-50
2021/01/25 04:59:32;;;;;;;0.55;0.55;;;;;;;5.45;100.00;99573.82;1790736;78;21111;-50
2021/01/25 05:02:00;;;;;;;0.20;0.20;;;;;;;5.42;100.00;99573.81;1790803;80;21162;-50
2021/01/25 05:04:29;;;;;;;2.20;1.95;;;;;;;5.43;100.00;99577.33;1790324;80;21581;-49
2021/01/25 05:06:56;;;;;;;1.32;0.95;;;;;;;5.41;100.00;99577.59;1790684;80;21091;-51
2021/01/25 05:09:24;;;;;;;1.12;0.72;;;;;;;5.39;100.00;99577.88;1731573;81;21625;-51
2021/01/25 05:12:00;;;;;;;0.40;0.40;;;;;;;5.37;100.00;99585.98;1790793;80;21146;-51
2021/01/25 05:14:43;;;;;;;0.00;0.00;;;;;;;5.36;100.00;99593.83;1790769;80;21414;-50
2021/01/25 05:17:11;;;;;;;0.00;0.00;;;;;;;5.36;100.00;99589.77;1791013;80;21553;-50
2021/01/25 05:19:44;;;;;;;0.13;0.13;;;;;;;5.35;100.00;99597.08;1790620;80;21103;-50
2021/01/25 05:22:19;;;;;;;0.65;0.65;;;;;;;5.36;100.00;99600.59;1793078;79;21519;-49
2021/01/25 05:24:50;;;;;;;0.37;0.37;;;;;;;5.36;100.00;99602.77;1793914;78;21117;-50
2021/01/25 05:27:25;;;;;;;1.45;1.35;;;;;;;5.36;100.00;99606.83;1756421;81;21558;-49
2021/01/25 05:29:52;;;;;;;0.65;0.65;;;;;;;5.38;100.00;99602.51;1724193;81;21218;-51
2021/01/25 05:32:19;;;;;;;0.75;0.75;;;;;;;5.38;100.00;99601.16;1708778;83;21132;-50
2021/01/25 05:34:47;;;;;;;0.72;0.68;;;;;;;5.38;100.00;99609.28;1726411;81;21597;-50
2021/01/25 05:37:17;;;;;;;1.15;1.15;;;;;;;5.38;100.00;99609.28;1758963;80;21142;-50
2021/01/25 05:39:46;;;;;;;0.50;0.50;;;;;;;5.38;100.00;99599.80;1726242;83;21166;-51
2021/01/25 05:42:14;;;;;;;0.53;0.53;;;;;;;5.37;100.00;99605.77;1729529;81;21469;-51
2021/01/25 05:44:41;;;;;;;0.55;0.55;;;;;;;5.38;100.00;99601.16;1718954;83;21098;-49
2021/01/25 05:47:10;;;;;;;0.68;0.30;;;;;;;5.37;100.00;99602.25;1734750;82;21147;-50
2021/01/25 05:49:38;;;;;;;0.10;0.10;;;;;;;5.37;100.00;99596.83;1734907;81;21157;-51
2021/01/25 05:52:05;;;;;;;0.23;0.23;;;;;;;5.36;100.00;99594.63;1733682;82;21189;-49
2021/01/25 05:54:33;;;;;;;1.17;1.15;;;;;;;5.35;100.00;99598.44;1734877;81;21569;-51
2021/01/25 05:57:01;;;;;;;0.45;0.35;;;;;;;5.35;100.00;99603.05;1707912;82;21083;-49
2021/01/25 05:59:29;;;;;;;1.32;0.45;;;;;;;5.34;100.00;99598.17;1734030;81;21609;-50
2021/01/25 06:01:56;;;;;;;0.85;0.33;;;;;;;5.35;100.00;99602.50;1755964;81;21448;-49
2021/01/25 06:04:24;;;;;;;0.33;0.13;;;;;;;5.34;100.00;99601.40;1749525;81;21139;-51
2021/01/25 06:07:02;;;;;;;0.57;0.47;;;;;;;5.36;100.00;99596.53;1752531;80;21173;-51
2021/01/25 06:09:55;;;;;;;0.30;0.30;;;;;;;5.34;100.00;99585.14;1741265;80;21222;-50
2021/01/25 06:12:30;;;;;;;0.20;0.20;;;;;;;5.28;100.00;99584.87;1723042;82;21150;-51
2021/01/25 06:15:04;;;;;;;0.95;0.95;;;;;;;5.21;100.00;99579.69;1733383;82;21453;-51
2021/01/25 06:17:33;;;;;;;0.45;0.45;;;;;;;5.16;100.00;99584.54;1721845;82;21173;-49
2021/01/25 06:20:03;;;;;;;1.30;1.22;;;;;;;5.14;100.00;99598.91;1726222;82;21627;-50
2021/01/25 06:22:31;;;;;;;1.87;0.55;;;;;;;5.13;100.00;99608.09;1709873;81;21127;-50
2021/01/25 06:24:59;;;;;;;0.37;0.37;;;;;;;5.14;100.00;99615.16;1758673;81;21124;-51
2021/01/25 06:27:27;;;;;;;0.90;0.35;;;;;;;5.18;100.00;99613.53;1750865;80;21123;-49
2021/01/25 06:29:54;;;;;;;1.27;0.72;;;;;;;5.20;100.00;99613.28;1759507;79;21164;-50
2021/01/25 06:32:30;;;;;;;1.02;0.70;;;;;;;5.21;100.00;99615.44;1783855;79;21583;-50
2021/01/25 06:34:57;;;;;;;0.03;0.03;;;;;;;5.21;100.00;99622.22;1786824;78;21670;-50
2021/01/25 06:37:28;;;;;;;0.23;0.23;;;;;;;5.23;100.00;99616.00;1791675;79;21098;-50
2021/01/25 06:39:57;;;;;;;0.37;0.37;;;;;;;5.28;100.00;99616.02;1687311;83;21616;-51
2021/01/25 06:42:30;;;;;;;1.27;1.17;;;;;;;5.32;100.00;99611.71;1725941;83;21621;-50
2021/01/25 06:45:01;;;;;;;0.80;0.80;;;;;;;5.32;100.00;99600.33;1734003;82;21504;-50
2021/01/25 06:47:29;;;;;;;1.40;1.27;;;;;;;5.34;100.00;99609.53;1734215;82;21098;-49
2021/01/25 06:49:58;;;;;;;1.22;1.22;;;;;;;5.35;100.00;99609.82;1706902;82;21119;-50
2021/01/25 06:52:29;;;;;;;0.60;0.30;;;;;;;5.38;100.00;99617.41;1782716;80;21485;-48
2021/01/25 06:55:01;;;;;;;0.35;0.35;;;;;;;5.37;100.00;99617.95;1786473;80;21117;-49
2021/01/25 06:57:34;;;;;;;1.85;0.82;;;;;;;5.38;100.00;99613.34;1789182;80;21073;-51
2021/01/25 07:00:14;;;;;;;0.20;0.20;;;;;;;5.38;100.00;99611.45;1793591;78;21121;-49
2021/01/25 07:02:57;;;;;;;0.28;0.23;;;;;;;5.37;100.00;99599.53;1767222;80;21164;-49
2021/01/25 07:05:32;;;;;;;0.42;0.42;;;;;;;5.38;100.00;99598.45;1793395;78;21552;-51
2021/01/25 07:08:24;;;;;;;0.20;0.20;;;;;;;5.37;100.00;99596.83;1787808;78;21157;-49
2021/01/25 07:11:00;;;;;;;0.33;0.33;;;;;;;5.39;100.00;99597.38;1790732;79;21160;-49
2021/01/25 07:13:33;;;;;;;0.25;0.25;;;;;;;5.41;100.00;99597.91;1793349;78;21086;-52
2021/01/25 07:16:00;;;;;;;0.62;0.53;;;;;;;5.42;100.00;99594.13;1725507;83;21138;-50
2021/01/25 07:18:28;;;;;;;0.75;0.55;;;;;;;5.42;100.00;99591.97;1734806;82;21746;-49
2021/01/25 07:20:58;;;;;;;2.75;2.25;;;;;;;5.44;100.00;99593.84;1734462;82;21196;-49
2021/01/25 07:23:26;;;;;;;0.20;0.20;;;;;;;5.46;100.00;99581.66;1734511;82;21490;-49
2021/01/25 07:25:58;;;;;;;0.85;0.62;;;;;;;5.49;100.00;99587.92;1724512;81;21154;-49
2021/01/25 07:28:28;;;;;;;0.90;0.65;;;;;;;5.51;100.00;99585.73;1734011;82;21536;-49
2021/01/25 07:30:57;;;;;;;1.00;0.45;;;;;;;5.54;100.00;99582.52;1737801;81;21170;-49
2021/01/25 07:33:25;;;;;;;2.83;0.65;;;;;;;5.58;100.00;99582.23;1737807;82;21171;-49
2021/01/25 07:35:53;;;;;;;0.60;0.60;;;;;;;5.60;100.00;99580.08;1740569;81;21116;-49
2021/01/25 07:38:21;;;;;;;0.37;0.37;;;;;;;5.62;100.00;99570.34;1750672;81;21119;-49
2021/01/25 07:40:51;;;;;;;0.10;0.10;;;;;;;5.65;100.00;99581.99;1748453;80;21108;-49
2021/01/25 07:43:19;;;;;;;1.02;0.93;;;;;;;5.69;100.00;99588.52;1733425;81;21163;-49
2021/01/25 07:45:51;;;;;;;0.70;0.70;;;;;;;5.73;100.00;99580.09;1745417;81;21450;-48
2021/01/25 07:48:18;;;;;;;0.72;0.72;;;;;;;5.79;100.00;99587.72;1747572;80;21118;-49
2021/01/25 07:50:53;;;;;;;0.57;0.57;;;;;;;5.82;100.00;99579.05;1753734;80;21148;-50
2021/01/25 07:53:21;;;;;;;0.15;0.15;;;;;;;5.88;100.00;99580.66;1777038;80;21448;-48
2021/01/25 07:55:49;;;;;;;0.50;0.35;;;;;;;5.94;100.00;99588.31;1769245;80;21427;-50
2021/01/25 07:58:16;;;;;;;3.25;0.45;;;;;;;5.94;100.00;99585.05;1755160;81;21143;-50
2021/01/25 08:00:44;;;;;;;0.28;0.28;;;;;;;5.95;100.00;99578.53;1731273;81;21202;-49
2021/01/25 08:03:23;;;;;;;2.95;0.28;;;;;;;5.98;100.00;99579.38;1731555;82;21137;-49
2021/01/25 08:05:53;;;;;;;1.30;0.53;;;;;;;6.01;100.00;99574.76;1731616;81;21516;-50
2021/01/25 08:08:21;;;;;;;1.35;0.82;;;;;;;6.04;100.00;99569.33;1731557;82;21179;-49
2021/01/25 08:10:50;;;;;;;0.75;0.75;;;;;;;6.07;100.00;99566.07;1731535;81;21228;-49
2021/01/25 08:13:30;;;;;;;0.68;0.68;;;;;;;6.10;100.00;99567.43;1732010;82;21118;-48
2021/01/25 08:16:01;;;;;;;0.65;0.65;;;;;;;6.16;100.00;99561.74;1731883;82;21161;-49
2021/01/25 08:18:52;;;;;;;0.28;0.28;;;;;;;6.18;100.00;99553.31;1731971;82;21132;-49
2021/01/25 08:21:34;;;;;;;0.20;0.20;;;;;;;6.20;100.00;99548.44;1732022;82;21144;-50
2021/01/25 08:24:04;;;;;;;0.10;0.10;;;;;;;6.21;100.00;99553.59;1731691;81;21185;-47
2021/01/25 08:26:31;;;;;;;0.75;0.75;;;;;;;6.23;100.00;99543.30;1692906;83;21134;-46
2021/01/25 08:29:02;;;;;;;0.20;0.20;;;;;;;6.25;100.00;99544.36;1723930;81;21568;-48
2021/01/25 08:31:38;;;;;;;0.60;0.60;;;;;;;6.26;100.00;99540.58;1723921;83;21188;-46
2021/01/25 08:34:20;;;;;;;0.37;0.37;;;;;;;6.29;100.00;99541.93;1755735;81;21676;-47
2021/01/25 08:37:04;;;;;;;0.27;0.27;;;;;;;6.32;100.00;99533.23;1749611;81;21162;-47
2021/01/25 08:39:40;;;;;;;0.00;0.00;;;;;;;6.34;100.00;99535.94;1708990;83;21700;-48
2021/01/25 08:42:17;;;;;;;0.30;0.30;;;;;;;6.35;100.00;99542.98;1721373;82;21102;-47
2021/01/25 08:44:50;;;;;;;0.98;0.98;;;;;;;6.28;100.00;99547.91;1694735;83;21142;-47
2021/01/25 08:47:29;;;;;;;0.10;0.10;;;;;;;6.23;100.00;99535.67;1887780;76;22338;-46
2021/01/25 08:49:57;;;;;;;4.40;1.30;;;;;;;6.05;100.00;99536.24;1796625;78;21142;-46
2021/01/25 08:52:39;;;;;;;0.40;0.40;;;;;;;5.86;100.00;99535.92;1783708;80;21129;-47
2021/01/25 08:55:16;;;;;;;0.55;0.55;;;;;;;5.62;100.00;99533.75;1783423;79;21130;-47
2021/01/25 08:57:43;;;;;;;0.98;0.42;;;;;;;5.34;100.00;99539.09;1782416;80;21122;-47
2021/01/25 09:00:18;;;;;;;0.95;0.57;;;;;;;5.20;100.00;99532.57;1755343;80;21436;-47
2021/01/25 09:02:46;;;;;;;0.35;0.35;;;;;;;5.10;100.00;99528.74;1783713;80;21130;-47
2021/01/25 09:05:14;;;;;;;0.62;0.62;;;;;;;5.07;100.00;99527.92;1783471;80;21127;-48
2021/01/25 09:07:41;;;;;;;0.10;0.10;;;;;;;5.04;100.00;99510.02;1783660;80;21260;-46
2021/01/25 09:10:11;;;;;;;0.75;0.75;;;;;;;4.98;100.00;99503.78;1783271;80;21126;-47
2021/01/25 09:12:39;;;;;;;0.25;0.25;;;;;;;4.95;100.00;99504.33;1782036;80;21091;-46
2021/01/25 09:15:10;;;;;;;0.98;0.50;;;;;;;4.93;100.00;99507.83;1771870;80;21428;-46
2021/01/25 09:17:38;;;;;;;0.53;0.37;;;;;;;4.88;100.00;99511.88;1783719;80;21429;-46
2021/01/25 09:20:07;;;;;;;0.55;0.55;;;;;;;4.83;100.00;99494.27;1780541;79;21134;-48
2021/01/25 09:22:35;;;;;;;0.65;0.65;;;;;;;4.78;100.00;99486.93;1764752;81;21581;-46
2021/01/25 09:25:07;;;;;;;1.02;1.02;;;;;;;4.74;100.00;99487.17;1764952;80;21114;-46
2021/01/25 09:27:36;;;;;;;0.65;0.13;;;;;;;4.73;100.00;99487.72;1783085;80;21642;-47
2021/01/25 09:30:05;;;;;;;0.30;0.30;;;;;;;4.71;100.00;99490.41;1778267;80;21447;-46
2021/01/25 09:32:32;;;;;;;0.65;0.65;;;;;;;4.71;100.00;99497.98;1783474;80;21135;-46
2021/01/25 09:35:00;;;;;;;1.57;0.53;;;;;;;4.72;100.00;99498.80;1771338;80;21141;-47
2021/01/25 09:37:27;;;;;;;0.93;0.68;;;;;;;4.69;100.00;99493.38;1745138;82;21595;-46
2021/01/25 09:39:55;;;;;;;0.42;0.42;;;;;;;4.72;100.00;99490.16;1755854;81;21147;-49
2021/01/25 09:42:22;;;;;;;1.30;1.20;;;;;;;4.77;100.00;99491.24;1745084;82;21143;-49
2021/01/25 09:44:51;;;;;;;0.00;0.00;;;;;;;4.76;100.00;99472.84;1744421;82;21482;-49
2021/01/25 09:47:18;;;;;;;0.70;0.70;;;;;;;4.77;100.00;99467.69;1773695;80;21127;-48
2021/01/25 09:49:47;;;;;;;0.45;0.45;;;;;;;4.79;100.00;99472.84;1788175;80;21131;-48
2021/01/25 09:52:15;;;;;;;1.75;0.90;;;;;;;4.81;100.00;99474.21;1788419;79;21114;-47
2021/01/25 09:54:42;;;;;;;0.72;0.72;;;;;;;4.81;100.00;99463.39;1788501;79;21370;-47
2021/01/25 09:57:10;;;;;;;1.57;1.47;;;;;;;4.78;100.00;99452.29;1788193;80;21146;-47
2021/01/25 09:59:37;;;;;;;0.23;0.23;;;;;;;4.72;100.00;99446.86;1787714;80;21159;-48
2021/01/25 10:02:04;;;;;;;0.13;0.13;;;;;;;4.70;100.00;99444.95;1787772;79;21095;-48
2021/01/25 10:04:32;;;;;;;0.23;0.20;;;;;;;4.69;100.00;99446.02;1787742;80;21556;-48
2021/01/25 10:06:59;;;;;;;0.20;0.20;;;;;;;4.66;100.00;99441.14;1787724;80;21163;-48
2021/01/25 10:09:27;;;;;;;0.20;0.20;;;;;;;4.64;100.00;99425.70;1787803;80;21469;-48
2021/01/25 10:11:55;;;;;;;1.20;0.85;;;;;;;4.59;100.00;99430.28;1787808;80;21545;-47
2021/01/25 10:14:22;;;;;;;0.15;0.15;;;;;;;4.56;100.00;99428.92;1787734;80;21080;-48
2021/01/25 10:16:50;;;;;;;0.30;0.30;;;;;;;4.51;100.00;99424.84;1787730;80;21131;-49
2021/01/25 10:19:17;;;;;;;0.08;0.08;;;;;;;4.49;100.00;99418.88;1759121;80;21122;-47
2021/01/25 10:21:44;;;;;;;0.90;0.90;;;;;;;4.48;100.00;99410.50;1759050;80;21178;-48
2021/01/25 10:24:12;;;;;;;1.65;0.88;;;;;;;4.44;100.00;99417.52;1791318;79;21553;-49
2021/01/25 10:26:39;;;;;;;1.17;1.07;;;;;;;4.32;100.00;99415.02;1793861;80;21107;-47
2021/01/25 10:29:06;;;;;;;0.65;0.17;;;;;;;4.22;100.00;99398.75;1758877;81;21434;-48
2021/01/25 10:31:33;;;;;;;0.78;0.65;;;;;;;4.12;100.00;99402.21;1759076;81;21155;-47
2021/01/25 10:34:01;;;;;;;0.47;0.30;;;;;;;4.03;100.00;99397.85;1758920;81;21926;-46
2021/01/25 10:36:29;;;;;;;2.37;0.62;;;;;;;3.95;100.00;99392.11;1758906;81;21115;-47
2021/01/25 10:38:56;;;;;;;0.00;0.00;;;;;;;3.88;100.00;99394.52;1758967;81;21099;-47
2021/01/25 10:41:24;;;;;;;0.15;0.15;;;;;;;3.84;100.00;99376.38;1758917;81;21148;-48
2021/01/25 10:43:51;;;;;;;1.07;0.68;;;;;;;3.82;100.00;99363.66;1758973;81;21619;-47
2021/01/25 10:46:19;;;;;;;0.35;0.35;;;;;;;3.82;100.00;99353.66;1751530;81;21150;-48
2021/01/25 10:48:46;;;;;;;1.37;0.30;;;;;;;3.82;100.00;99345.55;1770969;80;21148;-47
2021/01/25 10:51:14;;;;;;;0.75;0.75;;;;;;;3.90;100.00;99358.30;1770544;79;21628;-48
2021/01/25 10:53:41;;;;;;;0.72;0.40;;;;;;;4.00;100.00;99352.94;1768701;81;21158;-47
2021/01/25 10:56:08;;;;;;;0.65;0.47;;;;;;;4.07;100.00;99344.06;1770638;79;21668;-48
2021/01/25 10:58:37;;;;;;;0.10;0.10;;;;;;;4.13;100.00;99342.19;1808588;78;21136;-47
2021/01/25 11:01:04;;;;;;;1.75;1.02;;;;;;;4.16;100.00;99338.43;1782369;80;21154;-47
2021/01/25 11:03:33;;;;;;;1.20;0.65;;;;;;;4.12;100.00;99330.56;1776736;80;21454;-47
2021/01/25 11:06:01;;;;;;;0.60;0.60;;;;;;;4.07;100.00;99325.14;1768820;81;21659;-46
2021/01/25 11:08:30;;;;;;;0.88;0.80;;;;;;;4.04;100.00;99314.86;1768864;81;21150;-47
2021/01/25 11:10:58;;;;;;;1.07;0.88;;;;;;;4.08;100.00;99315.97;1768949;81;21209;-46
2021/01/25 11:13:25;;;;;;;1.50;0.62;;;;;;;4.11;100.00;99304.61;1768841;81;21150;-48
2021/01/25 11:15:52;;;;;;;0.57;0.57;;;;;;;4.14;100.00;99305.98;1768606;81;21099;-47
2021/01/25 11:18:19;;;;;;;0.93;0.93;;;;;;;4.18;100.00;99298.42;1768785;81;21135;-46
2021/01/25 11:20:47;;;;;;;0.72;0.72;;;;;;;4.24;100.00;99300.05;1768803;81;21085;-47
2021/01/25 11:23:14;;;;;;;1.27;0.85;;;;;;;4.28;100.00;99302.52;1775391;79;21149;-48
2021/01/25 11:25:42;;;;;;;1.67;1.40;;;;;;;4.34;100.00;99306.58;1782955;79;21441;-47
2021/01/25 11:28:09;;;;;;;0.53;0.53;;;;;;;4.37;100.00;99296.58;1768877;81;22005;-47
2021/01/25 11:30:37;;;;;;;2.98;1.55;;;;;;;4.39;100.00;99294.42;1783037;79;21114;-47
2021/01/25 11:33:05;;;;;;;2.10;1.02;;;;;;;4.38;100.00;99282.80;1769332;80;21413;-47
2021/01/25 11:35:32;;;;;;;1.50;1.42;;;;;;;4.39;100.00;99280.35;1763902;81;21153;-47
2021/01/25 11:38:00;;;;;;;1.10;1.07;;;;;;;4.39;100.00;99280.90;1764050;81;21181;-46
2021/01/25 11:40:27;;;;;;;0.55;0.55;;;;;;;4.38;100.00;99273.88;1763998;81;21141;-48
2021/01/25 11:42:54;;;;;;;1.55;1.45;;;;;;;4.36;100.00;99271.42;1764025;81;21150;-48